Time;durP1;ratioP1;P1;durP2;ratioP2;P2;SDS_P1;SDS_P2;PMS_P1;PMS_P2;Temp;Humidity;BMP_temperature;BMP_pressure;BME280_temperature;BME280_humidity;BME280_pressure;Samples;Min_cycle;Max_cycle;Signal;HPM_P1;HPM_P2
2021/11/16 00:02:10;;;;;;;10.45;6.00;;;;;;;4.50;66.87;94818.34;4994122;28;20413;-76
2021/11/16 00:04:35;;;;;;;11.35;6.55;;;;;;;4.50;67.22;94815.72;4999707;28;20671;-76
2021/11/16 00:07:02;;;;;;;15.90;5.82;;;;;;;4.49;66.85;94803.56;4991888;28;20038;-76
2021/11/16 00:09:27;;;;;;;11.10;6.68;;;;;;;4.36;67.39;94809.22;5006795;28;20041;-76
2021/11/16 00:11:52;;;;;;;14.35;7.25;;;;;;;4.39;67.76;94819.28;5005709;28;20149;-75
2021/11/16 00:14:18;;;;;;;11.68;6.78;;;;;;;4.22;68.26;94799.09;5000800;28;20046;-73
2021/11/16 00:16:44;;;;;;;13.25;7.07;;;;;;;4.56;67.63;94812.06;4999662;28;20060;-77
2021/11/16 00:19:15;;;;;;;11.95;7.13;;;;;;;4.74;66.51;94816.97;5007392;28;20021;-75
2021/11/16 00:21:45;;;;;;;10.98;6.28;;;;;;;4.48;67.72;94823.06;5003464;28;20084;-76
2021/11/16 00:24:15;;;;;;;13.48;6.20;;;;;;;4.36;68.01;94825.03;5006638;28;20136;-76
2021/11/16 00:26:42;;;;;;;15.05;5.95;;;;;;;4.24;68.60;94818.06;5001256;28;20068;-74
2021/11/16 00:29:08;;;;;;;13.82;6.80;;;;;;;4.06;69.36;94826.28;5008356;28;20041;-76
2021/11/16 00:31:34;;;;;;;9.77;5.88;;;;;;;4.08;69.55;94795.25;5006109;28;20057;-75
2021/11/16 00:34:00;;;;;;;11.32;6.38;;;;;;;4.13;69.55;94812.94;5008209;28;20630;-74
2021/11/16 00:36:28;;;;;;;12.43;6.50;;;;;;;3.84;70.64;94807.13;4997138;28;20494;-74
2021/11/16 00:38:53;;;;;;;15.05;8.00;;;;;;;3.89;70.73;94822.16;5001995;28;20041;-76
2021/11/16 00:41:19;;;;;;;11.82;7.05;;;;;;;3.77;71.23;94801.25;5006532;28;20080;-76
2021/11/16 00:43:44;;;;;;;12.20;6.93;;;;;;;3.97;70.71;94819.09;5004320;28;20041;-73
2021/11/16 00:46:10;;;;;;;12.50;7.38;;;;;;;3.82;71.20;94793.41;5001715;28;20029;-74
2021/11/16 00:48:35;;;;;;;11.13;6.63;;;;;;;3.74;71.29;94793.84;5004581;28;20522;-76
2021/11/16 00:51:04;;;;;;;14.07;7.28;;;;;;;3.78;71.72;94805.47;4990708;28;20096;-76
2021/11/16 00:53:33;;;;;;;11.88;6.25;;;;;;;3.65;71.54;94787.44;5001452;28;20432;-75
2021/11/16 00:55:59;;;;;;;15.18;7.18;;;;;;;3.79;71.62;94783.38;4998878;28;20013;-75
2021/11/16 00:58:26;;;;;;;12.40;6.90;;;;;;;3.64;72.20;94781.38;5002218;28;20048;-76
2021/11/16 01:00:51;;;;;;;13.85;7.82;;;;;;;3.98;71.98;94808.31;5000744;28;20041;-75
2021/11/16 01:03:18;;;;;;;16.98;8.48;;;;;;;3.57;72.09;94757.09;5003944;28;20076;-76
2021/11/16 01:05:44;;;;;;;17.77;8.68;;;;;;;3.89;72.68;94815.06;4998925;28;20044;-76
2021/11/16 01:08:12;;;;;;;11.82;7.63;;;;;;;3.91;72.79;94813.00;4999301;28;20045;-72
2021/11/16 01:10:40;;;;;;;17.20;8.27;;;;;;;3.73;73.90;94803.56;5000685;28;20408;-76
2021/11/16 01:13:11;;;;;;;16.13;9.32;;;;;;;3.60;74.83;94806.59;5002626;28;20048;-76
2021/11/16 01:15:40;;;;;;;15.15;8.95;;;;;;;3.59;75.25;94806.81;5004677;28;20045;-76
2021/11/16 01:18:06;;;;;;;16.25;7.95;;;;;;;3.48;76.05;94805.13;4997782;28;21058;-76
2021/11/16 01:20:32;;;;;;;16.42;8.55;;;;;;;3.49;76.58;94815.38;5001060;28;20038;-77
2021/11/16 01:22:58;;;;;;;16.55;9.02;;;;;;;3.24;77.23;94781.66;5004183;28;20029;-75
2021/11/16 01:25:26;;;;;;;17.00;9.25;;;;;;;3.50;77.38;94821.44;5005633;28;20480;-75
2021/11/16 01:27:57;;;;;;;17.08;10.30;;;;;;;3.49;77.88;94825.09;5016202;28;20068;-75
2021/11/16 01:30:26;;;;;;;16.85;9.10;;;;;;;3.40;78.41;94815.00;4994481;28;20374;-78
2021/11/16 01:33:03;;;;;;;22.13;10.48;;;;;;;3.34;78.38;94792.31;5001051;28;20630;-76
2021/11/16 01:35:29;;;;;;;17.13;9.25;;;;;;;3.27;78.93;94801.44;5006527;28;20092;-76
2021/11/16 01:37:55;;;;;;;19.35;10.15;;;;;;;3.38;79.11;94809.19;4997064;28;20855;-76
2021/11/16 01:40:21;;;;;;;21.15;10.60;;;;;;;3.49;78.80;94801.44;5001279;28;20472;-75
2021/11/16 01:42:50;;;;;;;17.67;10.13;;;;;;;3.56;78.73;94809.94;5001430;28;20559;-77
2021/11/16 01:45:16;;;;;;;22.20;10.63;;;;;;;3.41;79.18;94810.56;5000213;28;20128;-76
2021/11/16 01:47:43;;;;;;;21.88;11.30;;;;;;;3.30;79.67;94801.72;5000329;28;20234;-76
2021/11/16 01:50:10;;;;;;;22.42;10.43;;;;;;;3.32;79.69;94807.56;4997028;28;20034;-77
2021/11/16 01:52:37;;;;;;;20.48;11.65;;;;;;;3.32;79.82;94809.38;4998323;28;20029;-76
2021/11/16 01:55:07;;;;;;;21.42;11.93;;;;;;;3.29;79.88;94800.13;5001867;28;22106;-74
2021/11/16 01:57:34;;;;;;;20.13;10.80;;;;;;;3.51;79.65;94807.25;5000437;28;20037;-75
2021/11/16 01:59:59;;;;;;;23.65;11.05;;;;;;;3.27;79.38;94778.56;5007593;28;20123;-73
2021/11/16 02:02:25;;;;;;;19.77;10.98;;;;;;;3.38;79.36;94795.25;5002247;28;20363;-75
2021/11/16 02:04:51;;;;;;;18.05;10.20;;;;;;;3.39;78.95;94783.69;4998347;28;20029;-75
2021/11/16 02:07:16;;;;;;;21.70;10.50;;;;;;;3.59;78.61;94804.19;4998414;28;20060;-76
2021/11/16 02:09:43;;;;;;;23.67;12.02;;;;;;;3.40;78.51;94780.81;4997869;28;20048;-75
2021/11/16 02:12:09;;;;;;;24.00;12.60;;;;;;;3.42;78.33;94777.16;5000215;28;20037;-75
2021/11/16 02:14:35;;;;;;;23.00;11.48;;;;;;;3.66;78.13;94795.09;5007567;28;20372;-76
2021/11/16 02:17:01;;;;;;;20.40;12.05;;;;;;;3.41;78.20;94765.84;4999618;28;20026;-75
2021/11/16 02:19:27;;;;;;;24.00;12.90;;;;;;;3.54;77.92;94791.78;5001839;28;20049;-76
2021/11/16 02:21:53;;;;;;;20.05;12.73;;;;;;;3.48;77.74;94768.31;4992831;28;20034;-77
2021/11/16 02:24:20;;;;;;;23.88;12.73;;;;;;;3.55;77.91;94782.03;4999035;28;20165;-76
2021/11/16 02:26:45;;;;;;;20.25;10.63;;;;;;;3.50;78.11;94772.25;4998254;28;20416;-75
2021/11/16 02:29:11;;;;;;;24.30;13.38;;;;;;;3.33;77.95;94751.28;4998257;28;20271;-76
2021/11/16 02:31:37;;;;;;;23.77;12.48;;;;;;;3.46;78.01;94776.44;4994323;28;20034;-77
2021/11/16 02:34:06;;;;;;;20.83;11.63;;;;;;;3.49;77.40;94778.56;5004553;28;20492;-76
2021/11/16 02:36:33;;;;;;;28.25;13.13;;;;;;;3.49;77.33;94767.25;4997081;28;20501;-76
2021/11/16 02:38:59;;;;;;;24.50;12.48;;;;;;;3.58;77.13;94776.28;5004515;28;20030;-78
2021/11/16 02:41:31;;;;;;;21.50;11.40;;;;;;;3.49;77.05;94773.31;4997895;28;20325;-76
2021/11/16 02:43:59;;;;;;;20.40;10.35;;;;;;;3.70;76.22;94771.69;4995669;28;20044;-77
2021/11/16 02:46:26;;;;;;;20.17;9.98;;;;;;;3.95;75.39;94776.44;5003072;28;20632;-76
2021/11/16 02:48:52;;;;;;;22.60;12.00;;;;;;;3.84;74.70;94776.34;5003041;28;20815;-76
2021/11/16 02:51:17;;;;;;;20.48;10.07;;;;;;;3.92;74.54;94767.19;4991231;28;20437;-76
2021/11/16 02:53:43;;;;;;;17.38;10.30;;;;;;;3.83;74.16;94737.91;4996955;28;21559;-77
2021/11/16 02:56:09;;;;;;;20.95;10.38;;;;;;;3.96;73.47;94763.03;5000036;28;20830;-76
2021/11/16 02:58:35;;;;;;;22.73;11.00;;;;;;;3.94;73.57;94754.59;4997045;28;20021;-76
2021/11/16 03:01:09;;;;;;;16.10;9.68;;;;;;;4.05;72.62;94758.91;5003911;28;20038;-76
2021/11/16 03:03:38;;;;;;;16.23;8.85;;;;;;;4.07;72.48;94769.97;5004959;28;20044;-76
2021/11/16 03:06:04;;;;;;;17.60;8.82;;;;;;;4.10;72.11;94751.06;5003329;28;20045;-76
2021/11/16 03:08:29;;;;;;;16.95;9.60;;;;;;;3.94;72.13;94749.31;4997619;28;20507;-76
2021/11/16 03:10:58;;;;;;;16.75;9.70;;;;;;;3.79;72.12;94741.28;5008225;28;20072;-76
2021/11/16 03:13:26;;;;;;;18.45;10.20;;;;;;;3.86;72.63;94757.66;5003697;28;20033;-75
2021/11/16 03:15:52;;;;;;;19.45;8.35;;;;;;;3.63;73.98;94779.78;4998766;28;20697;-76
2021/11/16 03:18:18;;;;;;;17.30;9.30;;;;;;;3.63;74.28;94778.97;5005174;28;20045;-76
2021/11/16 03:20:44;;;;;;;17.00;8.35;;;;;;;3.55;74.21;94772.31;5001134;28;20734;-75
2021/11/16 03:23:16;;;;;;;15.15;8.57;;;;;;;3.29;74.79;94759.91;5004886;28;20037;-76
2021/11/16 03:25:57;;;;;;;19.70;8.57;;;;;;;3.46;74.82;94781.69;5003343;28;20026;-75
2021/11/16 03:28:26;;;;;;;14.70;8.32;;;;;;;3.38;74.79;94758.44;5004623;28;20282;-76
2021/11/16 03:30:54;;;;;;;14.70;8.38;;;;;;;3.17;74.97;94754.78;5003972;28;20041;-74
2021/11/16 03:33:22;;;;;;;16.98;8.45;;;;;;;3.28;75.25;94772.25;5001617;28;20538;-76
2021/11/16 03:35:48;;;;;;;15.75;8.50;;;;;;;3.42;74.83;94782.44;5009910;28;20081;-74
2021/11/16 03:38:17;;;;;;;11.70;7.10;;;;;;;3.31;74.96;94784.94;5003238;28;20037;-75
2021/11/16 03:40:45;;;;;;;13.63;7.72;;;;;;;3.14;75.73;94778.91;4997885;28;20681;-75
2021/11/16 03:43:10;;;;;;;13.82;7.80;;;;;;;3.02;75.63;94775.59;5005714;28;20500;-76
2021/11/16 03:45:37;;;;;;;10.55;6.82;;;;;;;2.78;75.65;94726.91;5005670;28;20440;-75
2021/11/16 03:48:04;;;;;;;13.13;7.25;;;;;;;3.12;75.80;94778.38;5003078;28;20256;-75
2021/11/16 03:50:30;;;;;;;11.98;7.20;;;;;;;3.04;75.35;94786.66;5006696;28;20048;-75
2021/11/16 03:52:57;;;;;;;14.43;7.20;;;;;;;3.18;75.19;94780.03;4995105;28;20084;-75
2021/11/16 03:55:32;;;;;;;15.70;7.28;;;;;;;3.10;75.05;94774.38;5004122;28;20025;-74
2021/11/16 03:57:59;;;;;;;11.35;7.45;;;;;;;2.93;75.60;94777.06;5006549;28;20038;-76
2021/11/16 04:00:32;;;;;;;13.27;6.85;;;;;;;3.11;75.48;94779.41;5005688;28;20542;-75
2021/11/16 04:02:58;;;;;;;11.50;7.72;;;;;;;3.03;75.50;94779.81;5004028;28;20117;-75
2021/11/16 04:05:25;;;;;;;11.70;6.22;;;;;;;3.06;75.44;94774.06;5001838;28;20041;-75
2021/11/16 04:07:52;;;;;;;14.93;8.00;;;;;;;2.91;75.69;94766.78;5006115;28;20029;-75
2021/11/16 04:10:18;;;;;;;16.25;6.88;;;;;;;2.89;75.85;94770.69;4998367;28;20120;-75
2021/11/16 04:12:45;;;;;;;15.13;6.55;;;;;;;2.99;75.81;94770.81;5004374;28;20046;-76
2021/11/16 04:15:13;;;;;;;17.40;6.75;;;;;;;3.06;75.70;94768.81;5009734;28;20045;-75
2021/11/16 04:17:43;;;;;;;12.57;7.85;;;;;;;2.81;76.06;94774.50;4997959;28;20447;-74
2021/11/16 04:20:21;;;;;;;13.63;7.70;;;;;;;2.76;76.25;94755.25;5003681;28;20053;-77
2021/11/16 04:22:47;;;;;;;13.70;9.10;;;;;;;2.88;76.40;94771.72;5003264;28;20038;-76
2021/11/16 04:25:13;;;;;;;12.82;6.47;;;;;;;2.83;76.43;94758.53;5003568;28;20871;-75
2021/11/16 04:27:40;;;;;;;21.08;6.82;;;;;;;3.05;75.89;94777.72;4999058;28;20070;-76
2021/11/16 04:30:07;;;;;;;15.15;7.78;;;;;;;2.75;75.51;94724.75;5005794;28;20042;-77
2021/11/16 04:32:32;;;;;;;12.05;6.80;;;;;;;3.04;75.73;94770.09;5005667;28;20046;-73
2021/11/16 04:34:58;;;;;;;13.80;7.18;;;;;;;3.00;75.70;94775.03;5008038;28;20025;-76
2021/11/16 04:37:24;;;;;;;14.02;7.07;;;;;;;2.94;75.87;94776.78;5004913;28;20021;-76
2021/11/16 04:39:49;;;;;;;14.65;6.88;;;;;;;2.93;75.92;94774.44;5001330;28;20048;-77
2021/11/16 04:42:17;;;;;;;15.75;7.70;;;;;;;2.89;76.05;94775.94;5001043;28;20129;-73
2021/11/16 04:44:43;;;;;;;12.82;6.82;;;;;;;2.51;76.46;94724.16;5002850;28;20140;-77
2021/11/16 04:47:10;;;;;;;13.25;6.47;;;;;;;2.89;75.76;94750.44;5000355;28;20025;-77
2021/11/16 04:49:40;;;;;;;13.07;6.22;;;;;;;2.93;75.92;94769.16;5004734;28;20870;-77
2021/11/16 05:02:39;;;;;;;16.30;8.30;;;;;;;3.00;75.36;94777.66;5006598;28;20041;-76
2021/11/16 05:05:12;;;;;;;12.75;6.10;;;;;;;2.99;74.77;94751.66;5000235;28;20422;-78
2021/11/16 05:07:42;;;;;;;12.30;6.75;;;;;;;3.04;74.52;94760.38;5006447;28;20025;-77
2021/11/16 05:10:08;;;;;;;11.65;7.30;;;;;;;3.04;74.39;94755.09;5005190;28;20530;-77
2021/11/16 05:12:34;;;;;;;12.18;6.60;;;;;;;3.21;74.16;94787.41;4997543;28;20038;-77
2021/11/16 05:15:04;;;;;;;19.92;8.05;;;;;;;2.94;74.52;94770.75;5011435;28;20563;-77
2021/11/16 05:17:30;;;;;;;11.65;6.13;;;;;;;3.05;74.95;94783.00;5002514;28;20073;-77
2021/11/16 05:19:55;;;;;;;14.90;7.63;;;;;;;3.11;74.63;94779.41;5003626;28;20440;-77
2021/11/16 05:22:21;;;;;;;16.42;7.68;;;;;;;3.01;74.86;94763.50;4994479;28;20041;-76
2021/11/16 05:24:47;;;;;;;17.33;7.32;;;;;;;3.13;74.40;94772.06;5003928;28;20041;-76
2021/11/16 05:27:14;;;;;;;14.52;7.25;;;;;;;3.09;74.38;94776.22;4996194;28;20496;-77
2021/11/16 05:29:40;;;;;;;13.10;6.50;;;;;;;3.01;74.55;94766.13;4994156;28;20042;-76
2021/11/16 05:32:06;;;;;;;15.60;7.88;;;;;;;3.10;74.52;94772.53;5000464;28;20432;-77
2021/11/16 05:34:31;;;;;;;13.95;7.68;;;;;;;2.91;74.61;94750.22;5004056;28;20029;-76
2021/11/16 05:36:57;;;;;;;14.05;9.60;;;;;;;3.20;74.24;94775.31;5009996;28;20073;-76
2021/11/16 05:39:22;;;;;;;14.68;7.38;;;;;;;2.82;74.48;94734.06;5012034;28;20099;-76
2021/11/16 05:41:48;;;;;;;10.93;6.90;;;;;;;3.33;74.34;94788.09;5001950;28;20041;-77
2021/11/16 05:44:15;;;;;;;16.35;8.52;;;;;;;3.04;74.67;94786.66;5005064;28;20041;-73
2021/11/16 05:46:40;;;;;;;15.35;8.30;;;;;;;3.20;74.63;94791.09;5006447;28;20466;-76
2021/11/16 05:49:06;;;;;;;15.25;8.15;;;;;;;3.31;74.15;94797.28;4997791;28;20046;-77
2021/11/16 05:51:31;;;;;;;16.13;7.93;;;;;;;3.33;73.88;94790.72;5002651;28;20127;-76
2021/11/16 05:54:00;;;;;;;16.38;7.72;;;;;;;3.33;73.92;94793.34;5004924;28;20503;-76
2021/11/16 05:56:27;;;;;;;16.80;8.90;;;;;;;3.32;74.19;94794.41;5004673;28;20037;-77
2021/11/16 05:58:54;;;;;;;14.30;7.70;;;;;;;3.36;73.78;94789.44;5001214;28;20968;-77
2021/11/16 06:01:25;;;;;;;16.33;8.75;;;;;;;3.39;73.86;94784.50;5008019;28;20025;-76
2021/11/16 06:03:53;;;;;;;28.20;11.00;;;;;;;3.54;73.39;94796.22;5002898;28;20045;-77
2021/11/16 06:06:24;;;;;;;16.42;7.40;;;;;;;3.30;73.51;94780.69;5001233;28;20212;-76
2021/11/16 06:08:51;;;;;;;21.10;8.88;;;;;;;3.34;73.36;94776.53;4995020;28;20484;-75
2021/11/16 06:11:18;;;;;;;17.70;8.32;;;;;;;3.44;73.85;94801.38;5004050;28;20061;-77
2021/11/16 06:13:48;;;;;;;17.42;8.48;;;;;;;3.50;73.34;94800.41;5007560;28;20592;-75
2021/11/16 06:16:14;;;;;;;18.83;9.60;;;;;;;3.38;73.46;94787.34;4995297;28;20045;-73
2021/11/16 06:18:40;;;;;;;15.93;7.63;;;;;;;3.51;73.54;94804.63;5003078;28;20049;-76
2021/11/16 06:21:07;;;;;;;16.13;7.93;;;;;;;3.53;73.41;94795.44;4994954;28;20037;-75
2021/11/16 06:23:33;;;;;;;15.48;8.23;;;;;;;3.31;73.19;94779.66;5014880;28;20041;-76
2021/11/16 06:26:00;;;;;;;15.52;8.75;;;;;;;3.54;73.12;94798.88;5001546;28;20065;-76
2021/11/16 06:28:26;;;;;;;17.15;8.15;;;;;;;3.54;73.31;94796.22;4997607;28;20041;-76
2021/11/16 06:30:52;;;;;;;13.77;8.45;;;;;;;3.68;72.83;94813.25;5002908;28;20073;-76
2021/11/16 06:33:21;;;;;;;16.08;8.98;;;;;;;3.54;73.22;94793.59;5002010;28;20053;-76
2021/11/16 06:35:46;;;;;;;16.35;8.45;;;;;;;3.64;71.73;94796.34;5005298;28;20049;-76
2021/11/16 06:38:12;;;;;;;14.32;7.68;;;;;;;3.77;72.18;94809.16;5003116;28;20616;-76
2021/11/16 06:40:37;;;;;;;16.10;7.50;;;;;;;3.74;72.14;94791.22;5009575;28;20140;-75
2021/11/16 06:43:03;;;;;;;17.50;8.30;;;;;;;3.73;72.13;94794.88;5005158;28;20044;-75
2021/11/16 06:45:29;;;;;;;12.32;7.68;;;;;;;3.73;71.40;94781.72;5011301;28;20045;-75
2021/11/16 06:47:54;;;;;;;20.00;9.15;;;;;;;3.74;71.73;94796.47;5007993;28;20935;-76
2021/11/16 06:50:20;;;;;;;14.75;8.02;;;;;;;3.74;71.29;94788.56;5008853;28;20575;-76
2021/11/16 06:52:46;;;;;;;9.55;5.70;;;;;;;3.88;69.84;94808.22;5009008;28;20071;-74
2021/11/16 06:55:12;;;;;;;7.38;5.38;;;;;;;4.00;68.59;94794.91;5007374;28;20183;-75
2021/11/16 06:57:38;;;;;;;8.75;5.28;;;;;;;4.09;67.77;94796.84;5006438;28;20544;-76
2021/11/16 07:00:07;;;;;;;7.28;5.07;;;;;;;4.19;67.06;94804.84;5007531;28;20056;-75
2021/11/16 07:02:33;;;;;;;5.75;4.30;;;;;;;4.33;66.67;94799.22;5010754;28;20057;-76
2021/11/16 07:05:06;;;;;;;9.73;4.40;;;;;;;4.31;66.73;94815.25;5005252;28;20715;-78
2021/11/16 07:07:41;;;;;;;7.85;4.57;;;;;;;4.20;66.77;94795.91;5010627;28;20354;-76
2021/11/16 07:10:06;;;;;;;6.57;3.53;;;;;;;4.27;66.43;94807.03;5010142;28;20038;-77
2021/11/16 07:12:32;;;;;;;6.45;3.95;;;;;;;4.42;65.80;94800.34;5007504;28;20030;-75
2021/11/16 07:14:57;;;;;;;8.25;4.15;;;;;;;4.24;65.90;94797.00;5008964;28;20772;-76
2021/11/16 07:17:23;;;;;;;8.60;4.15;;;;;;;4.32;66.34;94806.31;5003426;28;20073;-76
2021/11/16 07:19:55;;;;;;;6.85;4.63;;;;;;;4.57;66.14;94822.34;5005089;28;20026;-76
2021/11/16 07:22:27;;;;;;;6.85;3.95;;;;;;;4.44;65.66;94821.97;5006045;28;20096;-76
2021/11/16 07:24:56;;;;;;;5.25;3.63;;;;;;;4.16;65.76;94807.19;5009531;28;20051;-77
2021/11/16 07:27:41;;;;;;;3.65;2.90;;;;;;;4.24;65.61;94820.72;5005512;28;20056;-76
2021/11/16 07:30:12;;;;;;;3.78;3.08;;;;;;;4.41;65.67;94827.72;5012185;28;20076;-76
2021/11/16 07:32:50;;;;;;;7.28;3.42;;;;;;;4.39;65.58;94829.81;5008348;28;20045;-75
2021/11/16 07:35:17;;;;;;;4.43;2.63;;;;;;;4.34;65.46;94819.25;5009711;28;20037;-75
2021/11/16 07:37:47;;;;;;;4.30;3.30;;;;;;;4.39;65.71;94824.56;5005528;28;20453;-75
2021/11/16 07:40:17;;;;;;;5.30;3.67;;;;;;;4.55;65.53;94829.69;5006334;28;20042;-77
2021/11/16 07:42:50;;;;;;;6.95;3.40;;;;;;;4.48;66.11;94828.31;5004500;28;20049;-75
2021/11/16 07:45:22;;;;;;;5.55;3.75;;;;;;;4.33;67.51;94833.44;5004751;28;20449;-76
2021/11/16 07:48:06;;;;;;;5.32;3.58;;;;;;;4.33;67.82;94830.81;5007771;28;20091;-76
2021/11/16 07:50:31;;;;;;;6.50;3.90;;;;;;;4.19;68.57;94831.19;5005831;28;20115;-74
2021/11/16 07:53:21;;;;;;;4.13;3.17;;;;;;;4.34;68.40;94833.22;5006698;28;20408;-76
2021/11/16 07:55:53;;;;;;;6.75;4.20;;;;;;;4.45;68.14;94834.09;5009738;28;20479;-76
2021/11/16 07:58:20;;;;;;;6.43;3.65;;;;;;;4.18;68.64;94808.53;5007208;28;20053;-76
2021/11/16 08:00:48;;;;;;;8.75;3.42;;;;;;;4.52;68.30;94835.47;5008877;28;20033;-76
2021/11/16 08:03:21;;;;;;;4.72;3.42;;;;;;;4.45;67.84;94839.38;5005965;28;20037;-75
2021/11/16 08:05:59;;;;;;;7.18;3.38;;;;;;;4.21;68.20;94802.75;5004589;28;20056;-76
2021/11/16 08:11:12;;;;;;;6.25;3.42;;;;;;;4.17;67.81;94780.59;5004328;28;20067;-76
2021/11/16 08:14:05;;;;;;;5.80;3.33;;;;;;;4.41;68.59;94823.25;5006578;28;20053;-76
2021/11/16 08:16:37;;;;;;;4.72;3.25;;;;;;;4.12;69.67;94813.97;5021706;28;20048;-73
2021/11/16 08:19:09;;;;;;;5.78;3.92;;;;;;;4.26;69.87;94842.31;5005210;28;20041;-75
2021/11/16 08:21:41;;;;;;;6.72;3.08;;;;;;;4.34;68.75;94821.88;5007154;28;20172;-75
2021/11/16 08:24:10;;;;;;;4.75;2.72;;;;;;;4.49;68.15;94827.28;5010228;28;20596;-75
2021/11/16 08:26:43;;;;;;;4.40;2.97;;;;;;;4.50;68.49;94831.50;5004270;28;20069;-75
2021/11/16 08:29:12;;;;;;;4.80;3.33;;;;;;;4.53;68.32;94833.63;5005494;28;20212;-75
2021/11/16 08:31:50;;;;;;;5.68;3.05;;;;;;;4.56;69.00;94833.94;5012957;28;20034;-75
2021/11/16 08:34:16;;;;;;;4.13;2.85;;;;;;;4.62;68.16;94811.06;5008249;28;20034;-74
2021/11/16 08:36:48;;;;;;;5.38;3.40;;;;;;;4.50;68.20;94832.28;5007655;28;20503;-74
2021/11/16 08:39:17;;;;;;;4.97;3.28;;;;;;;4.49;68.46;94814.91;5006886;28;20107;-75
2021/11/16 08:41:43;;;;;;;3.83;3.15;;;;;;;4.54;68.09;94812.31;5006256;28;20065;-75
2021/11/16 08:44:13;;;;;;;3.63;3.30;;;;;;;4.63;68.31;94836.38;5008850;28;20057;-76
2021/11/16 08:46:39;;;;;;;6.32;4.85;;;;;;;4.68;67.92;94817.97;5004729;28;20022;-75
2021/11/16 08:49:04;;;;;;;6.60;3.47;;;;;;;4.79;67.92;94845.19;5002217;28;20053;-75
2021/11/16 08:51:43;;;;;;;4.35;3.42;;;;;;;4.96;67.51;94836.09;5005828;28;20038;-75
2021/11/16 08:54:10;;;;;;;4.55;3.22;;;;;;;4.87;67.13;94837.63;5006786;28;20040;-74
2021/11/16 08:56:39;;;;;;;5.00;3.60;;;;;;;4.84;67.41;94832.84;5005010;28;20033;-75
2021/11/16 08:59:16;;;;;;;9.48;4.63;;;;;;;4.76;67.95;94821.97;4999114;28;20404;-76
2021/11/16 09:02:04;;;;;;;5.30;3.90;;;;;;;4.67;68.09;94826.91;5008759;28;20036;-75
2021/11/16 09:04:32;;;;;;;6.88;3.55;;;;;;;4.59;68.17;94830.00;5004855;28;20055;-75
2021/11/16 09:06:59;;;;;;;8.13;4.18;;;;;;;4.64;67.99;94815.03;5005922;28;20124;-74
2021/11/16 09:09:27;;;;;;;4.25;3.20;;;;;;;4.55;68.04;94818.38;5003554;28;20060;-75
2021/11/16 09:11:57;;;;;;;6.70;4.40;;;;;;;4.69;68.33;94830.09;5002459;28;20872;-74
2021/11/16 09:14:24;;;;;;;5.97;4.15;;;;;;;4.80;68.12;94821.22;5003610;28;20056;-74
2021/11/16 09:16:49;;;;;;;6.22;4.00;;;;;;;4.74;67.93;94809.06;5007150;28;20055;-75
2021/11/16 09:19:30;;;;;;;5.97;3.90;;;;;;;4.84;67.85;94830.22;5010200;28;20112;-76
2021/11/16 09:21:57;;;;;;;6.47;3.58;;;;;;;4.87;67.88;94805.19;5002936;28;20045;-74
2021/11/16 09:24:37;;;;;;;9.95;4.22;;;;;;;4.91;68.18;94830.78;5001876;28;20125;-75
2021/11/16 09:29:34;;;;;;;7.20;4.22;;;;;;;4.76;68.53;94806.16;5003330;28;20119;-75
2021/11/16 09:32:11;;;;;;;8.18;4.18;;;;;;;4.76;69.10;94812.22;5002379;28;20057;-75
2021/11/16 09:34:43;;;;;;;7.82;4.53;;;;;;;4.82;69.03;94813.84;5005453;28;20034;-75
2021/11/16 09:37:14;;;;;;;5.35;4.05;;;;;;;4.79;68.60;94782.75;5003139;28;20328;-75
2021/11/16 09:39:44;;;;;;;6.00;3.90;;;;;;;5.13;68.22;94807.75;5003716;28;20038;-76
2021/11/16 09:42:13;;;;;;;6.18;3.90;;;;;;;5.12;68.45;94808.78;5007868;28;20120;-75
2021/11/16 09:44:43;;;;;;;7.10;3.85;;;;;;;5.26;68.02;94798.59;5003271;28;20073;-76
2021/11/16 09:47:20;;;;;;;7.88;4.07;;;;;;;5.30;67.95;94796.22;4999521;28;20061;-76
2021/11/16 09:49:57;;;;;;;5.00;3.78;;;;;;;5.48;67.68;94801.09;4998304;28;20056;-75
2021/11/16 09:52:30;;;;;;;8.40;4.80;;;;;;;5.33;67.56;94795.72;5015329;28;20056;-73
2021/11/16 09:54:56;;;;;;;6.88;4.15;;;;;;;5.11;68.14;94795.84;4997720;28;20144;-73
2021/11/16 09:57:25;;;;;;;5.47;4.22;;;;;;;5.17;68.17;94788.78;4997438;28;20038;-75
2021/11/16 09:59:59;;;;;;;6.00;4.30;;;;;;;4.76;68.83;94741.06;4996038;28;20042;-76
2021/11/16 10:02:27;;;;;;;6.18;3.78;;;;;;;5.07;68.77;94778.97;4996387;28;20393;-75
2021/11/16 10:05:01;;;;;;;7.75;4.57;;;;;;;4.88;69.05;94752.22;5000437;28;20030;-75
2021/11/16 10:07:28;;;;;;;7.60;4.78;;;;;;;5.10;68.91;94779.22;5000785;28;20112;-75
2021/11/16 10:09:54;;;;;;;7.93;4.32;;;;;;;5.20;67.87;94751.31;5000187;28;20539;-74
2021/11/16 10:12:23;;;;;;;7.32;3.95;;;;;;;5.32;67.39;94771.19;5001990;28;20497;-75
2021/11/16 10:14:51;;;;;;;4.88;3.75;;;;;;;5.26;67.91;94761.66;5000310;28;20037;-75
2021/11/16 10:17:17;;;;;;;7.28;4.53;;;;;;;5.18;67.58;94733.16;4997263;28;20136;-72
2021/11/16 10:19:42;;;;;;;6.63;3.72;;;;;;;5.08;67.25;94696.97;5000817;28;20032;-75
2021/11/16 10:22:12;;;;;;;8.73;3.72;;;;;;;5.46;66.59;94747.75;5000516;28;20037;-75
2021/11/16 10:24:39;;;;;;;5.53;3.75;;;;;;;5.29;66.78;94728.69;5005761;28;20057;-75
2021/11/16 10:27:17;;;;;;;5.55;4.20;;;;;;;5.41;66.90;94751.19;5000890;28;20344;-73
2021/11/16 10:30:04;;;;;;;5.70;4.13;;;;;;;5.46;67.27;94739.84;5003053;28;20042;-72
2021/11/16 10:32:29;;;;;;;7.75;4.63;;;;;;;5.28;68.37;94735.03;5003281;28;20038;-75
2021/11/16 10:35:10;;;;;;;8.63;4.68;;;;;;;5.20;68.17;94719.69;5000627;28;20048;-75
2021/11/16 10:37:48;;;;;;;9.13;4.15;;;;;;;5.30;68.42;94740.81;4999632;28;20400;-74
2021/11/16 10:40:14;;;;;;;8.40;4.13;;;;;;;5.33;68.41;94741.13;4997867;28;20137;-74
2021/11/16 10:42:49;;;;;;;5.53;3.92;;;;;;;5.30;69.26;94736.34;5001650;28;20045;-74
2021/11/16 10:45:16;;;;;;;10.38;4.22;;;;;;;5.22;68.94;94722.88;5000522;28;20038;-75
2021/11/16 10:47:45;;;;;;;7.13;3.92;;;;;;;5.04;69.41;94706.41;5004048;28;20038;-74
2021/11/16 10:50:15;;;;;;;7.28;4.07;;;;;;;4.81;69.71;94680.47;5001587;28;20038;-75
2021/11/16 10:52:41;;;;;;;7.63;3.78;;;;;;;5.17;69.86;94712.28;5004427;28;20036;-76
2021/11/16 10:55:08;;;;;;;4.60;3.47;;;;;;;5.19;69.43;94733.94;5000188;28;20033;-74
2021/11/16 10:57:55;;;;;;;4.88;3.08;;;;;;;4.98;69.92;94704.81;4999189;28;20046;-75
2021/11/16 11:00:34;;;;;;;5.15;3.20;;;;;;;5.02;70.48;94732.25;5000067;28;20512;-74
2021/11/16 11:03:23;;;;;;;5.85;2.97;;;;;;;5.16;70.26;94713.34;4997955;28;20069;-76
2021/11/16 11:05:54;;;;;;;7.47;3.70;;;;;;;5.12;70.84;94719.13;5003306;28;20042;-74
2021/11/16 11:08:41;;;;;;;5.00;2.95;;;;;;;5.03;71.23;94715.41;5002577;28;20041;-72
2021/11/16 11:11:33;;;;;;;3.65;2.72;;;;;;;5.03;71.73;94707.50;5003143;28;20049;-75
2021/11/16 11:14:12;;;;;;;4.57;3.33;;;;;;;5.05;71.75;94705.38;5004239;28;20049;-76
2021/11/16 11:16:48;;;;;;;3.15;2.38;;;;;;;5.07;71.98;94695.38;5005194;28;20072;-75
2021/11/16 11:19:19;;;;;;;3.35;2.45;;;;;;;4.98;72.06;94696.91;4999717;28;20670;-75
2021/11/16 11:21:55;;;;;;;3.92;2.67;;;;;;;4.99;72.16;94677.41;5009877;28;20034;-73
2021/11/16 11:24:26;;;;;;;8.35;3.13;;;;;;;5.23;71.96;94692.81;5005211;28;20044;-76
2021/11/16 11:27:08;;;;;;;4.18;2.70;;;;;;;5.23;71.84;94688.34;5007552;28;20037;-75
2021/11/16 11:29:47;;;;;;;3.10;2.58;;;;;;;5.21;71.68;94685.16;5008735;28;20086;-75
2021/11/16 11:32:18;;;;;;;3.17;2.55;;;;;;;5.28;71.17;94696.25;5009126;28;20041;-75
2021/11/16 11:34:48;;;;;;;6.90;3.03;;;;;;;5.13;71.28;94697.00;5008299;28;20025;-75
2021/11/16 11:37:24;;;;;;;3.53;3.22;;;;;;;5.10;71.26;94700.13;5004251;28;20141;-76
2021/11/16 11:40:16;;;;;;;15.00;5.40;;;;;;;5.05;72.15;94696.66;5003039;28;20525;-75
2021/11/16 11:42:44;;;;;;;4.38;3.22;;;;;;;5.07;73.76;94700.66;5005589;28;20053;-76
2021/11/16 11:45:40;;;;;;;4.82;3.13;;;;;;;5.23;74.12;94701.53;5007282;28;20104;-76
2021/11/16 11:48:06;;;;;;;3.92;3.10;;;;;;;5.00;74.63;94700.06;4991209;28;20654;-76
2021/11/16 11:50:35;;;;;;;5.95;3.55;;;;;;;5.06;74.95;94698.25;5007614;28;20404;-76
2021/11/16 11:53:05;;;;;;;7.63;4.70;;;;;;;5.08;75.23;94696.19;5004737;28;20033;-75
2021/11/16 11:55:33;;;;;;;3.78;2.88;;;;;;;5.13;75.02;94697.00;5003692;28;20058;-74
2021/11/16 11:58:02;;;;;;;9.90;5.15;;;;;;;5.13;75.24;94693.56;4956122;28;20049;-75
2021/11/16 12:00:28;;;;;;;9.30;4.10;;;;;;;5.18;75.15;94692.78;4966735;28;20038;-75
2021/11/16 12:02:54;;;;;;;9.80;4.60;;;;;;;5.14;75.07;94661.63;5003906;28;20033;-76